createdAt,value
2024-02-08T00:03:08.920Z,994.427
2024-02-08T00:23:08.084Z,994.226
2024-02-08T00:43:08.623Z,994.24
2024-02-08T01:03:09.265Z,994.083
2024-02-08T01:23:07.913Z,993.995
2024-02-08T01:43:08.168Z,994.294
2024-02-08T02:03:08.124Z,994.161
2024-02-08T02:23:07.528Z,993.958
2024-02-08T02:43:07.694Z,994.011
2024-02-08T03:03:10.232Z,994.052
2024-02-08T03:23:08.224Z,994.024
2024-02-08T03:43:07.354Z,993.449
2024-02-08T04:03:08.490Z,993.664
2024-02-08T04:23:08.016Z,993.834
2024-02-08T04:43:08.152Z,993.689
2024-02-08T05:03:08.151Z,993.65
2024-02-08T05:23:07.386Z,993.292
2024-02-08T05:43:09.143Z,993.384
2024-02-08T06:03:08.114Z,993.212
2024-02-08T06:23:07.295Z,993.129
2024-02-08T06:43:07.705Z,993.255
2024-02-08T07:03:08.950Z,993.22
2024-02-08T07:23:08.107Z,993.395
2024-02-08T07:43:08.348Z,993.377
2024-02-08T08:03:08.419Z,993.16
2024-02-08T08:23:07.759Z,992.778
2024-02-08T08:43:08.070Z,992.807
2024-02-08T09:03:09.177Z,992.563
2024-02-08T09:23:07.312Z,992.254
2024-02-08T09:43:07.651Z,991.897
2024-02-08T10:03:08.948Z,991.549
2024-02-08T10:23:08.181Z,991.337
2024-02-08T10:43:07.513Z,991.128
2024-02-08T11:03:08.887Z,990.786
2024-02-08T11:23:08.120Z,990.321
2024-02-08T11:43:09.928Z,989.903
2024-02-08T12:03:14.431Z,989.779
2024-02-08T12:23:07.664Z,989.455
2024-02-08T12:43:08.035Z,989.334
2024-02-08T13:03:09.535Z,989.12
2024-02-08T13:23:07.776Z,988.839
2024-02-08T13:43:08.693Z,988.575
2024-02-08T14:03:09.115Z,988.199
2024-02-08T14:23:07.414Z,987.834
2024-02-08T14:43:08.266Z,987.418
2024-02-08T15:03:08.527Z,987.267
2024-02-08T15:23:07.731Z,986.783
2024-02-08T15:43:08.198Z,986.519
2024-02-08T16:03:08.533Z,985.989
2024-02-08T16:23:08.141Z,985.276
2024-02-08T16:43:07.560Z,985.057
2024-02-08T17:03:08.701Z,984.708
2024-02-08T17:23:07.968Z,984.526
2024-02-08T17:43:11.107Z,984.332
2024-02-08T18:03:08.290Z,983.958
2024-02-08T18:23:07.522Z,983.795
2024-02-08T18:43:08.796Z,983.503
2024-02-08T19:03:09.864Z,983.646
2024-02-08T19:23:08.035Z,983.348
2024-02-08T19:43:07.665Z,982.854
2024-02-08T20:03:10.183Z,982.803
2024-02-08T20:23:07.257Z,982.639
2024-02-08T20:43:07.684Z,982.548
2024-02-08T21:03:09.148Z,982.428
2024-02-08T21:23:07.312Z,982.261
2024-02-08T21:43:07.934Z,982.193
2024-02-08T22:03:09.572Z,982.038
2024-02-08T22:23:07.783Z,981.833
2024-02-08T22:43:07.816Z,981.738
2024-02-08T23:03:09.612Z,981.568
2024-02-08T23:23:07.824Z,981.329
2024-02-08T23:43:08.234Z,981.348
